createdAt,value
2022-09-23T00:00:22.452Z,15.02
2022-09-23T00:03:08.314Z,17.38
2022-09-23T00:06:01.694Z,15.32
2022-09-23T00:08:47.460Z,15.07
2022-09-23T00:11:32.884Z,15.77
2022-09-23T00:14:18.716Z,15.23
2022-09-23T00:17:04.009Z,16.35
2022-09-23T00:19:49.643Z,20.45
2022-09-23T00:22:36.428Z,17.65
2022-09-23T00:25:21.865Z,19.88
2022-09-23T00:28:07.316Z,15.20
2022-09-23T00:30:52.984Z,15.60
2022-09-23T00:33:38.379Z,14.48
2022-09-23T00:36:25.316Z,16.33
2022-09-23T00:39:10.783Z,16.63
2022-09-23T00:41:56.286Z,17.48
2022-09-23T00:45:04.289Z,14.18
2022-09-23T00:48:02.318Z,13.80
2022-09-23T00:50:53.403Z,13.32
2022-09-23T00:53:40.315Z,14.02
2022-09-23T00:56:26.042Z,15.23
2022-09-23T00:59:11.286Z,15.48
2022-09-23T01:01:58.749Z,13.77
2022-09-23T01:04:44.390Z,16.85
2022-09-23T01:07:30.233Z,13.85
2022-09-23T01:10:17.186Z,14.35
2022-09-23T01:13:20.666Z,13.13
2022-09-23T01:16:14.790Z,13.63
2022-09-23T01:19:34.218Z,13.73
2022-09-23T01:22:44.365Z,14.57
2022-09-23T01:26:11.137Z,13.10
2022-09-23T01:29:34.575Z,14.48
2022-09-23T01:32:38.627Z,17.00
2022-09-23T01:35:24.960Z,14.63
2022-09-23T01:38:44.672Z,13.98
2022-09-23T01:41:40.001Z,15.07
2022-09-23T01:44:34.820Z,14.35
2022-09-23T01:47:30.674Z,14.45
2022-09-23T01:50:43.361Z,13.98
2022-09-23T01:53:40.236Z,11.13
2022-09-23T01:56:31.151Z,12.77
2022-09-23T01:59:32.809Z,13.00
2022-09-23T02:02:33.935Z,11.95
2022-09-23T02:05:30.178Z,17.23
2022-09-23T02:08:26.309Z,10.35
2022-09-23T02:11:15.303Z,14.50
2022-09-23T02:14:16.587Z,9.65
2022-09-23T02:17:10.357Z,11.50
2022-09-23T02:20:01.681Z,13.90
2022-09-23T02:22:56.378Z,10.20
2022-09-23T02:25:54.341Z,13.05
2022-09-23T02:29:07.823Z,15.20
2022-09-23T02:32:33.507Z,10.68
2022-09-23T02:35:32.817Z,10.88
2022-09-23T02:38:21.715Z,11.80
2022-09-23T02:41:22.995Z,9.02
2022-09-23T02:44:16.570Z,9.35
2022-09-23T02:47:02.247Z,9.63
2022-09-23T02:49:47.776Z,9.82
2022-09-23T02:52:33.455Z,10.10
2022-09-23T02:55:23.415Z,12.82
2022-09-23T03:01:38.383Z,12.27
2022-09-23T03:04:31.546Z,9.75
2022-09-23T03:07:41.570Z,11.43
2022-09-23T03:14:08.482Z,9.68
2022-09-23T03:17:33.267Z,10.85
2022-09-23T03:20:39.204Z,13.60
2022-09-23T03:23:39.341Z,9.40
2022-09-23T03:26:31.260Z,9.63
2022-09-23T03:29:19.805Z,10.10
2022-09-23T03:32:08.188Z,12.90
2022-09-23T03:34:56.501Z,9.75
2022-09-23T03:37:53.268Z,10.70
2022-09-23T03:40:43.427Z,10.77
2022-09-23T03:43:30.063Z,9.68
2022-09-23T03:46:18.359Z,12.50
2022-09-23T03:49:17.146Z,12.07
2022-09-23T03:52:03.405Z,9.93
2022-09-23T03:54:49.553Z,11.70
2022-09-23T03:57:36.701Z,9.90
2022-09-23T04:00:22.035Z,11.50
2022-09-23T04:03:11.406Z,15.38
2022-09-23T04:08:42.279Z,13.25
2022-09-23T04:11:28.746Z,14.10
2022-09-23T04:14:15.006Z,13.43
2022-09-23T04:17:00.420Z,11.10
2022-09-23T04:19:45.907Z,14.63
2022-09-23T04:22:33.513Z,16.10
2022-09-23T04:25:19.071Z,15.75
2022-09-23T04:28:04.492Z,12.18
2022-09-23T04:30:49.857Z,14.80
2022-09-23T04:33:35.781Z,13.35
2022-09-23T04:36:21.174Z,12.48
2022-09-23T04:39:06.778Z,13.85
2022-09-23T04:41:51.732Z,13.60
2022-09-23T04:44:38.837Z,11.75
2022-09-23T04:47:24.092Z,14.57
2022-09-23T04:50:09.322Z,14.68
2022-09-23T04:52:55.105Z,18.15
2022-09-23T04:55:41.067Z,12.57
2022-09-23T04:58:26.577Z,12.35
2022-09-23T05:01:24.613Z,14.20
2022-09-23T05:04:13.760Z,15.93
2022-09-23T05:07:02.922Z,16.67
2022-09-23T05:09:48.593Z,13.23
2022-09-23T05:12:34.127Z,16.60
2022-09-23T05:15:19.437Z,13.05
2022-09-23T05:18:04.875Z,11.07
2022-09-23T05:20:56.718Z,14.15
2022-09-23T05:23:48.771Z,15.30
2022-09-23T05:26:33.832Z,16.35
2022-09-23T05:29:19.072Z,11.93
2022-09-23T05:32:04.565Z,16.38
2022-09-23T05:34:49.872Z,13.02
2022-09-23T05:37:35.255Z,13.68
2022-09-23T05:40:20.544Z,13.50
2022-09-23T05:43:06.271Z,13.80
2022-09-23T05:45:52.401Z,18.33
2022-09-23T05:48:38.584Z,13.82
2022-09-23T05:51:30.658Z,13.77
2022-09-23T05:54:16.419Z,12.55
2022-09-23T05:57:04.863Z,9.98
2022-09-23T05:59:50.594Z,12.38
2022-09-23T06:02:36.036Z,13.60
2022-09-23T06:05:21.090Z,14.80
2022-09-23T06:08:07.721Z,15.07
2022-09-23T06:10:54.532Z,13.25
2022-09-23T06:13:41.250Z,12.20
2022-09-23T06:16:27.615Z,13.77
2022-09-23T06:19:12.943Z,11.82
2022-09-23T06:21:58.010Z,13.25
2022-09-23T06:24:42.983Z,13.00
2022-09-23T06:27:28.470Z,10.75
2022-09-23T06:30:13.949Z,13.57
2022-09-23T06:33:00.042Z,12.57
2022-09-23T06:35:56.818Z,14.52
2022-09-23T06:38:44.694Z,14.23
2022-09-23T06:41:30.065Z,12.45
2022-09-23T06:44:16.613Z,10.70
2022-09-23T06:47:01.966Z,14.80
2022-09-23T06:49:47.925Z,11.50
2022-09-23T06:52:33.298Z,9.35
2022-09-23T06:55:18.553Z,10.95
2022-09-23T06:58:04.125Z,13.15
2022-09-23T07:00:49.373Z,9.60
2022-09-23T07:03:35.443Z,11.85
2022-09-23T07:06:20.825Z,12.52
2022-09-23T07:09:08.028Z,14.25
2022-09-23T07:11:53.685Z,9.75
2022-09-23T07:14:39.114Z,7.15
2022-09-23T07:17:25.120Z,14.15
2022-09-23T07:20:11.402Z,9.32
2022-09-23T07:22:56.832Z,10.18
2022-09-23T07:25:42.867Z,14.85
2022-09-23T07:28:28.970Z,11.07
2022-09-23T07:31:26.565Z,9.73
2022-09-23T07:34:17.681Z,7.22
2022-09-23T07:37:02.900Z,12.10
2022-09-23T07:39:48.220Z,11.23
2022-09-23T07:42:33.488Z,8.48
2022-09-23T07:45:18.628Z,6.47
2022-09-23T07:48:05.391Z,12.70
2022-09-23T07:50:50.682Z,7.05
2022-09-23T07:53:36.966Z,8.75
2022-09-23T07:56:26.919Z,13.63
2022-09-23T08:02:03.630Z,10.13
2022-09-23T08:04:49.524Z,11.55
2022-09-23T08:07:35.318Z,9.95
2022-09-23T08:10:21.069Z,10.25
2022-09-23T08:13:06.570Z,9.93
2022-09-23T08:15:55.523Z,14.15
2022-09-23T08:18:45.025Z,8.00
2022-09-23T08:21:30.554Z,8.55
2022-09-23T08:24:21.759Z,9.80
2022-09-23T08:27:07.145Z,6.63
2022-09-23T08:29:52.438Z,7.90
2022-09-23T08:32:37.875Z,8.10
2022-09-23T08:35:23.673Z,10.77
2022-09-23T08:38:12.278Z,8.60
2022-09-23T08:41:23.730Z,11.48
2022-09-23T08:44:32.851Z,8.93
2022-09-23T08:47:24.788Z,7.30
2022-09-23T08:50:20.228Z,7.55
2022-09-23T08:53:12.929Z,7.70
2022-09-23T08:56:00.827Z,8.27
2022-09-23T08:59:22.775Z,4.30
2022-09-23T09:02:35.220Z,6.65
2022-09-23T09:05:27.476Z,4.13
2022-09-23T09:08:13.944Z,6.72
2022-09-23T09:11:00.005Z,4.80
2022-09-23T09:13:56.736Z,6.05
2022-09-23T09:17:04.779Z,5.93
2022-09-23T09:20:21.314Z,5.15
2022-09-23T09:23:33.843Z,4.70
2022-09-23T09:26:39.938Z,5.28
2022-09-23T09:29:35.358Z,4.88
2022-09-23T09:32:46.153Z,3.40
2022-09-23T09:35:38.434Z,6.95
2022-09-23T09:38:24.043Z,5.18
2022-09-23T09:41:16.875Z,3.63
2022-09-23T09:44:19.198Z,3.25
2022-09-23T09:47:28.405Z,5.22
2022-09-23T09:50:21.232Z,4.78
2022-09-23T09:53:25.366Z,5.75
2022-09-23T09:56:14.736Z,2.20
2022-09-23T09:59:08.258Z,2.03
2022-09-23T10:02:21.506Z,6.78
2022-09-23T10:05:07.816Z,3.35
2022-09-23T10:07:54.106Z,3.85
2022-09-23T10:10:54.697Z,3.78
2022-09-23T10:13:40.262Z,3.30
2022-09-23T10:16:25.833Z,1.75
2022-09-23T10:19:28.197Z,3.38
2022-09-23T10:22:24.245Z,2.25
2022-09-23T10:25:17.047Z,3.40
2022-09-23T10:28:30.708Z,2.97
2022-09-23T10:31:25.974Z,3.80
2022-09-23T10:34:28.963Z,7.88
2022-09-23T10:37:23.294Z,32.85
2022-09-23T10:40:53.409Z,13.80
2022-09-23T10:44:35.910Z,16.13
2022-09-23T10:47:42.764Z,4.38
2022-09-23T10:50:39.511Z,3.22
2022-09-23T10:53:49.378Z,2.67
2022-09-23T10:56:40.153Z,3.10
2022-09-23T10:59:49.556Z,1.77
2022-09-23T11:03:10.645Z,2.65
2022-09-23T11:06:22.965Z,3.22
2022-09-23T11:09:13.992Z,5.70
2022-09-23T11:12:24.107Z,3.75
2022-09-23T11:15:38.955Z,3.17
2022-09-23T11:18:30.568Z,2.83
2022-09-23T11:21:27.674Z,8.50
2022-09-23T11:24:39.598Z,2.33
2022-09-23T11:27:46.836Z,4.18
2022-09-23T11:30:57.900Z,4.13
2022-09-23T11:33:56.489Z,4.45
2022-09-23T11:36:53.044Z,3.58
2022-09-23T11:39:45.736Z,1.70
2022-09-23T11:42:58.086Z,4.22
2022-09-23T11:45:57.845Z,4.45
2022-09-23T11:51:57.822Z,3.15
2022-09-23T11:55:15.190Z,3.53
2022-09-23T11:58:25.144Z,2.03
2022-09-23T12:01:37.353Z,2.95
2022-09-23T12:04:23.970Z,4.63
2022-09-23T12:07:19.967Z,2.72
2022-09-23T12:10:09.234Z,4.10
2022-09-23T12:13:23.747Z,2.83
2022-09-23T12:16:33.682Z,4.85
2022-09-23T12:19:47.473Z,6.10
2022-09-23T12:22:52.415Z,2.10
2022-09-23T12:25:57.106Z,2.45
2022-09-23T12:28:46.768Z,9.57
2022-09-23T12:31:41.065Z,4.55
2022-09-23T12:34:30.069Z,2.85
2022-09-23T12:37:27.740Z,4.00
2022-09-23T12:40:44.407Z,2.72
2022-09-23T12:43:33.047Z,3.03
2022-09-23T12:46:27.543Z,3.03
2022-09-23T12:49:37.077Z,2.20
2022-09-23T12:52:26.567Z,2.97
2022-09-23T12:55:22.027Z,2.10
2022-09-23T12:58:56.940Z,2.00
2022-09-23T13:01:43.454Z,3.13
2022-09-23T13:04:54.114Z,1.75
2022-09-23T13:07:47.045Z,5.53
2022-09-23T13:10:54.291Z,4.50
2022-09-23T13:13:43.356Z,3.28
2022-09-23T13:16:40.736Z,3.50
2022-09-23T13:19:25.880Z,2.20
2022-09-23T13:22:14.502Z,3.45
2022-09-23T13:25:02.930Z,2.58
2022-09-23T13:27:52.720Z,3.08
2022-09-23T13:30:49.140Z,6.05
2022-09-23T13:33:54.353Z,5.43
2022-09-23T13:36:48.903Z,2.15
2022-09-23T13:39:34.645Z,4.80
2022-09-23T13:42:29.806Z,9.15
2022-09-23T13:45:19.015Z,3.88
2022-09-23T13:48:11.991Z,2.42
2022-09-23T13:50:57.110Z,5.72
2022-09-23T13:53:42.294Z,5.95
2022-09-23T13:56:30.669Z,2.08
2022-09-23T13:59:38.178Z,1.48
2022-09-23T14:02:28.498Z,4.63
2022-09-23T14:05:26.172Z,1.83
2022-09-23T14:08:12.651Z,3.28
2022-09-23T14:10:59.475Z,3.72
2022-09-23T14:13:46.592Z,4.63
2022-09-23T14:16:32.046Z,5.50
2022-09-23T14:19:19.671Z,4.18
2022-09-23T14:22:09.234Z,2.17
2022-09-23T14:24:58.411Z,2.13
2022-09-23T14:27:46.687Z,3.70
2022-09-23T14:30:32.203Z,3.50
2022-09-23T14:33:34.079Z,2.35
2022-09-23T14:36:37.678Z,3.17
2022-09-23T14:39:22.898Z,7.28
2022-09-23T14:42:09.716Z,7.47
2022-09-23T14:44:57.531Z,2.25
2022-09-23T14:47:49.596Z,2.17
2022-09-23T14:50:47.433Z,5.15
2022-09-23T14:53:34.538Z,4.50
2022-09-23T14:56:21.988Z,4.03
2022-09-23T14:59:40.889Z,2.85
2022-09-23T15:02:31.110Z,3.75
2022-09-23T15:05:22.418Z,4.32
2022-09-23T15:08:12.895Z,2.63
2022-09-23T15:10:58.843Z,1.73
2022-09-23T15:13:49.337Z,1.85
2022-09-23T15:16:34.920Z,3.33
2022-09-23T15:19:21.536Z,14.45
2022-09-23T15:22:09.662Z,5.82
2022-09-23T15:25:11.095Z,4.47
2022-09-23T15:28:08.423Z,12.90
2022-09-23T15:30:53.732Z,4.85
2022-09-23T15:33:39.180Z,4.25
2022-09-23T15:36:27.373Z,3.38
2022-09-23T15:39:13.342Z,2.15
2022-09-23T15:42:01.394Z,5.00
2022-09-23T15:44:46.827Z,4.88
2022-09-23T15:47:32.220Z,2.47
2022-09-23T15:50:18.020Z,2.30
2022-09-23T15:53:04.166Z,2.35
2022-09-23T15:55:53.222Z,2.40
2022-09-23T15:58:38.187Z,5.63
2022-09-23T16:01:30.051Z,4.80
2022-09-23T16:04:16.639Z,4.80
2022-09-23T16:07:04.112Z,6.15
2022-09-23T16:09:49.459Z,3.45
2022-09-23T16:12:34.684Z,3.45
2022-09-23T16:15:22.027Z,4.47
2022-09-23T16:18:09.525Z,4.20
2022-09-23T16:20:54.824Z,4.40
2022-09-23T16:23:47.329Z,4.45
2022-09-23T16:26:39.475Z,3.95
2022-09-23T16:29:25.350Z,2.75
2022-09-23T16:32:10.678Z,4.88
2022-09-23T16:34:58.366Z,3.78
2022-09-23T16:37:46.955Z,7.13
2022-09-23T16:40:32.639Z,7.63
2022-09-23T16:43:19.576Z,7.78
2022-09-23T16:46:12.633Z,7.78
2022-09-23T16:48:58.755Z,8.38
2022-09-23T16:51:43.994Z,8.65
2022-09-23T16:54:29.843Z,5.93
2022-09-23T16:57:15.198Z,4.72
2022-09-23T17:00:19.069Z,8.43
